Time;durP1;ratioP1;P1;durP2;ratioP2;P2;SDS_P1;SDS_P2;PMS_P1;PMS_P2;Temp;Humidity;BMP_temperature;BMP_pressure;BME280_temperature;BME280_humidity;BME280_pressure;Samples;Min_cycle;Max_cycle;Signal;HPM_P1;HPM_P2
2022/03/11 00:03:58;;;;;;;3.20;2.27;;;;;;;17.05;46.56;96788.41;10465340;28;20476;-23
2022/03/11 00:08:59;;;;;;;7.43;3.60;;;;;;;17.10;47.07;96790.94;10466949;28;20275;-22
2022/03/11 00:14:00;;;;;;;6.50;3.47;;;;;;;17.12;47.43;96794.34;10464658;28;20119;-21
2022/03/11 00:19:01;;;;;;;3.50;2.70;;;;;;;17.10;46.60;96786.75;10453814;28;20048;-22
2022/03/11 00:24:02;;;;;;;4.18;2.72;;;;;;;17.09;46.52;96785.03;10462219;28;20415;-22
2022/03/11 00:29:03;;;;;;;3.47;3.17;;;;;;;17.07;46.51;96785.88;10438877;28;20108;-23
2022/03/11 00:34:04;;;;;;;3.42;2.53;;;;;;;17.06;46.34;96779.97;10437843;28;20146;-22
2022/03/11 00:39:04;;;;;;;3.22;2.50;;;;;;;17.04;46.52;96780.78;10466869;28;20040;-24
2022/03/11 00:44:05;;;;;;;2.70;2.23;;;;;;;17.05;46.55;96782.47;10461281;28;20492;-23
2022/03/11 00:49:05;;;;;;;4.18;2.33;;;;;;;17.01;46.54;96781.63;10465521;28;20301;-23
2022/03/11 00:54:06;;;;;;;2.70;2.27;;;;;;;17.05;46.41;96782.47;10463140;28;20527;-22
2022/03/11 00:59:06;;;;;;;3.15;2.22;;;;;;;17.02;46.50;96777.41;10424899;28;20824;-21
2022/03/11 01:04:07;;;;;;;3.08;2.45;;;;;;;17.01;46.61;96775.72;10435703;28;20177;-22
2022/03/11 01:09:07;;;;;;;2.97;2.22;;;;;;;17.02;46.51;96772.34;10470618;28;20037;-22
2022/03/11 01:14:08;;;;;;;6.05;2.65;;;;;;;17.04;47.07;96771.53;10460305;28;20024;-22
2022/03/11 01:19:08;;;;;;;2.75;2.13;;;;;;;17.07;47.41;96765.66;10427024;28;20404;-22
2022/03/11 01:24:09;;;;;;;4.20;2.55;;;;;;;17.05;46.48;96768.16;10465119;28;20044;-23
2022/03/11 01:29:09;;;;;;;4.20;2.20;;;;;;;17.02;46.82;96747.91;10465256;28;20093;-23
2022/03/11 01:34:11;;;;;;;2.65;2.15;;;;;;;17.00;46.46;96751.28;10448677;28;20025;-23
2022/03/11 01:39:12;;;;;;;2.45;2.10;;;;;;;17.01;46.50;96747.91;10462374;28;20045;-22
2022/03/11 01:44:12;;;;;;;4.07;2.65;;;;;;;17.00;46.24;96749.56;10464724;28;20028;-22
2022/03/11 01:49:13;;;;;;;3.25;1.95;;;;;;;17.00;46.27;96748.75;10461002;28;20500;-22
2022/03/11 01:54:14;;;;;;;4.68;2.58;;;;;;;17.00;46.75;96743.69;10433803;28;20038;-21
2022/03/11 01:59:15;;;;;;;2.63;2.42;;;;;;;16.98;46.46;96746.19;10431173;28;20044;-23
2022/03/11 02:04:15;;;;;;;2.30;1.90;;;;;;;16.98;46.42;96741.13;10461823;28;20515;-22
2022/03/11 02:09:16;;;;;;;2.45;2.20;;;;;;;16.95;46.46;96740.25;10469173;28;20029;-22
2022/03/11 02:14:16;;;;;;;2.28;2.08;;;;;;;16.99;46.46;96737.75;10463736;28;20514;-23
2022/03/11 02:19:17;;;;;;;4.18;3.33;;;;;;;17.00;47.23;96736.09;10446797;28;20129;-22
2022/03/11 02:24:17;;;;;;;2.30;2.08;;;;;;;17.02;47.37;96732.75;10436651;28;20032;-22
2022/03/11 02:29:18;;;;;;;2.55;1.92;;;;;;;17.04;47.29;96735.25;10459536;28;20040;-22
2022/03/11 02:34:18;;;;;;;3.03;1.95;;;;;;;17.00;46.46;96728.50;10443665;28;20029;-23
2022/03/11 02:39:19;;;;;;;2.53;2.25;;;;;;;16.97;46.40;96719.22;10461655;28;20032;-22
2022/03/11 02:44:19;;;;;;;1.83;1.67;;;;;;;16.98;46.49;96725.97;10461485;28;20028;-23
2022/03/11 02:49:20;;;;;;;2.63;2.05;;;;;;;16.96;46.60;96727.66;10460087;28;20112;-22
2022/03/11 02:54:20;;;;;;;2.30;1.90;;;;;;;16.97;46.53;96715.81;10432088;28;20060;-24
2022/03/11 02:59:20;;;;;;;2.70;1.80;;;;;;;16.96;46.43;96711.59;10454769;28;20033;-23
2022/03/11 03:04:21;;;;;;;2.17;1.67;;;;;;;16.95;46.56;96715.84;10465315;28;20033;-22
2022/03/11 03:09:21;;;;;;;3.20;2.08;;;;;;;16.96;46.42;96719.19;10443275;28;20282;-22
2022/03/11 03:14:22;;;;;;;2.17;1.88;;;;;;;16.96;46.33;96711.59;10462931;28;20514;-22
2022/03/11 03:19:22;;;;;;;3.13;2.00;;;;;;;16.98;46.09;96704.91;10420584;28;20124;-22
2022/03/11 03:24:23;;;;;;;2.20;1.90;;;;;;;17.00;46.55;96713.34;10465282;28;20074;-22
2022/03/11 03:29:24;;;;;;;3.45;2.00;;;;;;;17.04;47.15;96705.78;10460332;28;20415;-22
2022/03/11 03:34:30;;;;;;;3.92;2.65;;;;;;;17.06;47.19;96710.84;10420540;28;20109;-22
2022/03/11 03:39:31;;;;;;;2.10;1.70;;;;;;;17.03;46.50;96700.69;10443286;28;20514;-22
2022/03/11 03:44:32;;;;;;;3.55;2.13;;;;;;;17.00;46.55;96703.22;10450904;28;20121;-23
2022/03/11 03:49:34;;;;;;;2.20;1.80;;;;;;;16.97;46.52;96709.09;10433800;28;20033;-22
2022/03/11 03:54:34;;;;;;;2.72;2.00;;;;;;;16.90;46.33;96686.31;10457966;28;20037;-22
2022/03/11 03:59:35;;;;;;;2.83;1.80;;;;;;;16.97;46.29;96701.50;10463009;28;20033;-23
2022/03/11 04:04:35;;;;;;;2.83;2.00;;;;;;;16.96;46.15;96707.41;10461870;28;20296;-22
2022/03/11 04:09:36;;;;;;;2.45;1.83;;;;;;;16.96;46.54;96706.56;10472887;28;20055;-22
2022/03/11 04:14:36;;;;;;;2.20;1.95;;;;;;;16.94;46.48;96703.19;10456158;28;20033;-22
2022/03/11 04:19:36;;;;;;;3.35;2.00;;;;;;;16.95;46.59;96704.88;10417185;28;20397;-22
2022/03/11 04:24:37;;;;;;;2.07;1.80;;;;;;;16.94;46.27;96708.22;10467043;28;20028;-22
2022/03/11 04:29:38;;;;;;;2.15;1.80;;;;;;;16.93;46.40;96701.47;10430224;28;20446;-22
2022/03/11 04:34:39;;;;;;;2.70;2.28;;;;;;;16.95;47.19;96697.28;10451266;28;20033;-22
2022/03/11 04:39:39;;;;;;;2.60;1.80;;;;;;;17.00;47.17;96693.09;10459896;28;20041;-23
2022/03/11 04:44:41;;;;;;;2.63;1.85;;;;;;;16.97;46.93;96690.53;10470860;28;20291;-22
2022/03/11 04:49:41;;;;;;;3.47;1.45;;;;;;;16.98;46.40;96690.56;10464600;28;20029;-22
2022/03/11 04:54:42;;;;;;;1.60;1.48;;;;;;;17.02;46.11;96691.41;10464584;28;21031;-22
2022/03/11 04:59:44;;;;;;;4.18;1.75;;;;;;;17.03;45.85;96691.44;10463403;28;20520;-21
2022/03/11 05:04:44;;;;;;;4.32;2.08;;;;;;;17.07;46.05;96680.47;10451243;28;20048;-22
2022/03/11 05:09:45;;;;;;;3.00;1.57;;;;;;;17.07;45.99;96679.66;10461512;28;20412;-22
2022/03/11 05:14:49;;;;;;;2.53;1.50;;;;;;;17.08;46.19;96678.81;10461822;28;20381;-22
2022/03/11 05:19:50;;;;;;;3.13;2.08;;;;;;;17.04;46.50;96677.94;10451317;28;20034;-21
2022/03/11 05:24:50;;;;;;;2.72;1.88;;;;;;;17.10;46.02;96672.06;10469342;28;20037;-22
2022/03/11 05:29:51;;;;;;;6.75;1.85;;;;;;;17.10;46.63;96687.25;10464866;28;20037;-22
2022/03/11 05:34:51;;;;;;;2.97;2.03;;;;;;;17.11;46.09;96687.25;10455731;28;20028;-22
2022/03/11 05:39:52;;;;;;;3.95;2.13;;;;;;;17.13;46.29;96678.00;10462708;28;20040;-24
2022/03/11 05:44:52;;;;;;;4.03;2.10;;;;;;;17.13;46.49;96688.09;10456873;28;20031;-24
2022/03/11 05:49:54;;;;;;;3.13;1.87;;;;;;;17.13;46.15;96682.19;10462906;28;20290;-22
2022/03/11 05:54:55;;;;;;;10.85;3.25;;;;;;;16.89;43.22;96674.50;10459419;28;20289;-22
2022/03/11 05:59:55;;;;;;;3.92;2.72;;;;;;;16.97;44.97;96678.75;10461413;28;20059;-23
2022/03/11 06:04:56;;;;;;;3.37;2.00;;;;;;;17.04;46.04;96672.88;10460606;28;20435;-23
2022/03/11 06:09:56;;;;;;;3.60;2.20;;;;;;;17.03;45.65;96678.78;10442322;28;20439;-22
2022/03/11 06:14:57;;;;;;;3.05;1.98;;;;;;;17.08;46.21;96681.34;10461735;28;20036;-22
2022/03/11 06:19:57;;;;;;;6.85;2.50;;;;;;;17.08;46.24;96677.09;10446743;28;20040;-23
2022/03/11 06:24:59;;;;;;;5.82;2.13;;;;;;;17.10;46.16;96682.19;10465820;28;20040;-23
2022/03/11 06:29:59;;;;;;;3.25;1.60;;;;;;;17.10;46.05;96684.72;10457586;28;20036;-23
2022/03/11 06:34:59;;;;;;;2.43;1.93;;;;;;;17.11;46.30;96681.34;10405955;28;20040;-23
2022/03/11 06:40:00;;;;;;;2.90;1.80;;;;;;;17.09;46.24;96673.75;10463296;28;20523;-22
2022/03/11 06:45:00;;;;;;;10.52;2.92;;;;;;;17.04;45.74;96679.63;10453253;28;20376;-22
2022/03/11 06:50:02;;;;;;;5.90;2.57;;;;;;;16.99;45.85;96691.41;10467957;28;20037;-22
2022/03/11 06:55:04;;;;;;;6.10;3.10;;;;;;;17.06;47.45;96688.09;10460212;28;20664;-22
2022/03/11 07:00:06;;;;;;;7.15;2.80;;;;;;;17.10;46.88;96680.50;10439608;28;20071;-23
2022/03/11 07:05:08;;;;;;;2.95;1.75;;;;;;;17.09;46.20;96683.03;10461954;28;20120;-22
2022/03/11 07:10:12;;;;;;;2.83;2.35;;;;;;;17.08;46.35;96688.94;10468463;28;20056;-23
2022/03/11 07:15:13;;;;;;;7.38;2.63;;;;;;;17.06;46.15;96688.09;10462301;28;20025;-22
2022/03/11 07:20:13;;;;;;;2.65;1.85;;;;;;;17.05;45.89;96688.91;10432110;28;20052;-22
2022/03/11 07:25:15;;;;;;;3.65;2.60;;;;;;;17.04;46.11;96694.78;10464730;28;20029;-22
2022/03/11 07:30:15;;;;;;;2.17;1.95;;;;;;;17.03;46.11;96693.09;10457824;28;20102;-23
2022/03/11 07:35:16;;;;;;;3.20;2.13;;;;;;;17.02;46.60;96686.34;10451161;28;20032;-23
2022/03/11 07:40:16;;;;;;;2.65;2.10;;;;;;;17.00;46.31;96685.50;10450228;28;20203;-22
2022/03/11 07:45:17;;;;;;;2.83;2.10;;;;;;;16.99;46.41;96686.34;10440211;28;20043;-22
2022/03/11 07:50:17;;;;;;;6.10;2.53;;;;;;;17.06;46.27;96685.56;10438939;28;20295;-22
2022/03/11 07:55:18;;;;;;;5.38;2.30;;;;;;;17.05;45.79;96686.38;10455237;28;20695;-23
2022/03/11 08:00:18;;;;;;;5.57;2.47;;;;;;;17.09;46.26;96680.50;10459312;28;20110;-22
2022/03/11 08:05:19;;;;;;;6.50;2.35;;;;;;;17.13;46.13;96694.84;10428180;28;20051;-22
2022/03/11 08:10:19;;;;;;;4.97;2.45;;;;;;;17.10;45.90;96689.78;10460537;28;20037;-22
2022/03/11 08:15:20;;;;;;;7.30;2.47;;;;;;;17.08;45.95;96696.53;10455337;28;20515;-24
2022/03/11 08:20:21;;;;;;;2.63;1.77;;;;;;;17.06;46.09;96693.16;10456143;28;20038;-22
2022/03/11 08:25:26;;;;;;;3.53;2.35;;;;;;;17.05;45.96;96691.41;10465861;28;20516;-24
2022/03/11 08:30:27;;;;;;;2.83;1.63;;;;;;;17.05;45.78;96688.91;10446500;28;20036;-22
2022/03/11 08:35:28;;;;;;;4.57;1.90;;;;;;;17.02;45.67;96691.41;10426596;28;20040;-23
2022/03/11 08:40:29;;;;;;;2.00;1.50;;;;;;;17.02;45.82;96691.41;10439677;28;20041;-22
2022/03/11 08:45:32;;;;;;;3.53;2.13;;;;;;;16.99;45.87;96682.13;10457117;28;20518;-22
2022/03/11 08:50:33;;;;;;;2.63;1.70;;;;;;;16.99;46.41;96684.66;10468872;28;20107;-23
2022/03/11 08:55:34;;;;;;;3.40;1.70;;;;;;;17.00;45.81;96682.97;10462632;28;20392;-23
2022/03/11 09:00:35;;;;;;;9.00;3.53;;;;;;;17.01;45.65;96679.63;10458373;28;20279;-23
2022/03/11 09:05:37;;;;;;;11.20;4.88;;;;;;;17.06;45.51;96673.75;10463129;28;20047;-23
2022/03/11 09:10:37;;;;;;;6.03;3.50;;;;;;;17.17;43.58;96668.72;10460336;28;20512;-22
2022/03/11 09:15:38;;;;;;;7.63;4.53;;;;;;;17.19;42.49;96672.09;10455574;28;20029;-22
2022/03/11 09:20:40;;;;;;;8.95;4.35;;;;;;;17.14;42.85;96673.78;10452371;28;20788;-22
2022/03/11 09:25:40;;;;;;;4.10;2.28;;;;;;;17.08;44.56;96668.69;10459565;28;20562;-25
2022/03/11 09:30:41;;;;;;;7.03;3.92;;;;;;;17.03;43.17;96670.34;10425045;28;20029;-22
2022/03/11 09:35:41;;;;;;;5.65;3.90;;;;;;;17.04;43.81;96664.44;10463807;28;20416;-21
2022/03/11 09:40:44;;;;;;;6.40;4.30;;;;;;;17.02;43.53;96666.13;10461557;28;20503;-22
2022/03/11 09:45:45;;;;;;;7.93;3.80;;;;;;;17.02;43.58;96656.00;10456581;28;20048;-22
2022/03/11 09:50:46;;;;;;;7.05;3.42;;;;;;;17.01;43.80;96650.13;10426993;28;20056;-22
2022/03/11 09:55:46;;;;;;;7.47;3.08;;;;;;;16.97;44.79;96642.50;10433595;28;20051;-23
2022/03/11 10:00:48;;;;;;;7.43;4.03;;;;;;;17.00;44.53;96637.47;10459042;28;20095;-23
2022/03/11 10:05:52;;;;;;;5.10;3.58;;;;;;;16.95;44.89;96636.59;10458061;28;20079;-22
2022/03/11 10:11:15;;;;;;;5.80;4.15;;;;;;;16.95;45.28;96634.91;10465124;28;20037;-22
2022/03/11 10:16:18;;;;;;;7.97;4.53;;;;;;;17.07;43.61;96634.94;10457730;28;20400;-24
2022/03/11 10:21:18;;;;;;;9.00;5.45;;;;;;;17.12;41.37;96624.84;10454004;28;20115;-23
2022/03/11 10:26:41;;;;;;;4.82;3.65;;;;;;;17.11;43.25;96613.06;10461236;28;20462;-23
2022/03/11 10:31:43;;;;;;;3.63;2.55;;;;;;;17.09;45.11;96607.16;10438411;28;20033;-23
2022/03/11 10:36:52;;;;;;;4.53;2.83;;;;;;;17.07;45.42;96598.72;10453653;28;20530;-22
2022/03/11 10:42:17;;;;;;;4.85;2.85;;;;;;;17.08;45.45;96600.41;10448677;28;20043;-22
2022/03/11 10:47:44;;;;;;;4.97;3.20;;;;;;;17.04;45.21;96603.75;10462153;28;20075;-22
2022/03/11 10:52:47;;;;;;;3.53;2.72;;;;;;;17.08;45.63;96601.22;10437816;28;20052;-23
2022/03/11 10:57:48;;;;;;;3.28;2.97;;;;;;;17.07;45.50;96593.66;10462065;28;20048;-22
2022/03/11 11:02:57;;;;;;;3.15;2.28;;;;;;;17.08;45.85;96590.28;10429756;28;20118;-23
2022/03/11 11:07:59;;;;;;;2.40;1.98;;;;;;;17.08;45.49;96585.22;10456245;28;20442;-22
2022/03/11 11:13:00;;;;;;;2.50;2.20;;;;;;;17.08;45.57;96572.59;10459004;28;20439;-23
2022/03/11 11:18:08;;;;;;;4.32;2.53;;;;;;;17.11;45.97;96565.84;10448940;28;20044;-22
2022/03/11 11:23:10;;;;;;;3.08;2.50;;;;;;;17.13;45.31;96554.03;10436648;28;20479;-22
2022/03/11 11:28:23;;;;;;;6.90;4.35;;;;;;;17.21;41.57;96541.41;10458824;28;20036;-22
2022/03/11 11:33:24;;;;;;;5.75;2.55;;;;;;;17.18;44.40;96536.34;10449023;28;20555;-22
2022/03/11 11:38:28;;;;;;;5.20;2.30;;;;;;;17.19;45.13;96530.44;10454350;28;20052;-22
2022/03/11 11:43:31;;;;;;;2.95;2.03;;;;;;;17.16;45.41;96507.69;10468211;28;20454;-22
2022/03/11 11:48:52;;;;;;;3.72;2.13;;;;;;;17.15;45.31;96498.41;10457899;28;20188;-22
2022/03/11 11:53:56;;;;;;;3.50;2.35;;;;;;;17.08;45.55;96494.19;10464371;28;20458;-22
2022/03/11 11:58:59;;;;;;;2.78;2.20;;;;;;;17.09;45.60;96490.81;10461535;28;20508;-21
2022/03/11 12:04:35;;;;;;;4.78;2.05;;;;;;;17.10;45.65;96482.38;10465920;28;20029;-21
2022/03/11 12:09:42;;;;;;;3.45;2.20;;;;;;;17.08;45.87;96473.94;10469272;28;20036;-21
2022/03/11 12:15:01;;;;;;;5.07;3.55;;;;;;;17.10;45.85;96473.09;10463401;28;20056;-21
2022/03/11 12:20:23;;;;;;;6.32;2.15;;;;;;;17.06;45.80;96455.41;10458476;28;20068;-22
2022/03/11 12:25:29;;;;;;;3.38;2.30;;;;;;;17.11;45.84;96454.56;10460442;28;20511;-22
2022/03/11 12:30:34;;;;;;;2.90;2.20;;;;;;;17.12;46.03;96452.84;10469371;28;20039;-21
2022/03/11 12:35:36;;;;;;;14.25;4.80;;;;;;;17.22;46.27;96452.88;10453379;28;20029;-22
2022/03/11 12:40:36;;;;;;;10.23;3.85;;;;;;;17.28;45.96;96431.78;10464997;28;20040;-21
2022/03/11 12:45:44;;;;;;;10.25;3.70;;;;;;;17.21;45.93;96425.88;10454750;28;20511;-22
2022/03/11 12:50:46;;;;;;;4.45;2.30;;;;;;;17.07;45.99;96407.31;10469356;28;20048;-21
2022/03/11 12:55:48;;;;;;;3.80;2.72;;;;;;;17.12;46.04;96414.91;10464258;28;20051;-22
2022/03/11 13:00:52;;;;;;;4.00;1.88;;;;;;;17.11;46.20;96414.09;10459308;28;20045;-22
2022/03/11 13:05:53;;;;;;;3.60;1.85;;;;;;;17.07;46.37;96404.78;10437648;28;20032;-22
2022/03/11 13:10:54;;;;;;;4.80;2.15;;;;;;;17.10;46.32;96409.88;10470742;28;20025;-21
2022/03/11 13:15:57;;;;;;;6.28;1.95;;;;;;;17.08;46.27;96411.53;10466536;28;20107;-21
2022/03/11 13:20:57;;;;;;;5.78;1.92;;;;;;;17.07;46.39;96402.25;10448644;28;20090;-22
2022/03/11 13:26:07;;;;;;;7.37;2.90;;;;;;;17.07;46.15;96403.97;10467133;28;20516;-22
2022/03/11 13:31:20;;;;;;;2.80;2.00;;;;;;;17.05;46.44;96411.53;10464931;28;20266;-21
2022/03/11 13:36:26;;;;;;;5.95;2.67;;;;;;;16.97;46.65;96399.72;10429859;28;20448;-22
2022/03/11 13:41:30;;;;;;;13.35;4.13;;;;;;;17.15;47.45;96427.59;10462533;28;20100;-22
2022/03/11 13:46:33;;;;;;;11.93;3.97;;;;;;;17.22;47.15;96432.63;10452142;28;20029;-21
2022/03/11 13:51:51;;;;;;;14.20;3.63;;;;;;;17.19;46.78;96426.72;10447903;28;20036;-22
2022/03/11 13:56:52;;;;;;;6.65;2.40;;;;;;;17.11;46.08;96430.94;10462382;28;20066;-21
2022/03/11 14:01:52;;;;;;;3.65;1.92;;;;;;;17.08;46.58;96430.94;10442892;28;20108;-22
2022/03/11 14:07:06;;;;;;;3.55;2.10;;;;;;;17.12;46.44;96430.09;10464013;28;20552;-21
2022/03/11 14:12:07;;;;;;;3.97;2.35;;;;;;;17.11;46.43;96433.47;10458223;28;20529;-21
2022/03/11 14:17:08;;;;;;;3.28;1.90;;;;;;;17.11;46.49;96441.06;10459397;28;20112;-23
2022/03/11 14:22:10;;;;;;;4.38;2.28;;;;;;;17.08;46.37;96436.81;10434422;28;20089;-21
2022/03/11 14:27:13;;;;;;;3.75;2.10;;;;;;;17.06;46.72;96438.53;10462546;28;20495;-22
2022/03/11 14:32:14;;;;;;;4.40;2.30;;;;;;;17.07;46.59;96436.84;10452515;28;20157;-22
2022/03/11 14:37:15;;;;;;;5.15;2.22;;;;;;;17.07;46.72;96436.84;10460905;28;20123;-21
2022/03/11 14:42:16;;;;;;;3.67;2.03;;;;;;;17.07;46.49;96430.09;10431364;28;20395;-23
2022/03/11 14:47:17;;;;;;;12.60;6.53;;;;;;;17.01;43.82;96426.72;10454007;28;20286;-22
2022/03/11 14:52:18;;;;;;;8.30;3.90;;;;;;;17.17;46.22;96423.34;10416804;28;20458;-22
2022/03/11 14:57:18;;;;;;;10.55;3.38;;;;;;;17.26;46.70;96420.81;10462869;28;20123;-23
2022/03/11 15:02:19;;;;;;;3.40;2.13;;;;;;;17.20;45.99;96418.28;10468092;28;20514;-22
2022/03/11 15:07:19;;;;;;;2.67;2.03;;;;;;;17.12;46.39;96413.25;10443868;28;20083;-22
2022/03/11 15:12:20;;;;;;;16.87;5.17;;;;;;;17.10;45.05;96409.03;10417747;28;20047;-21
2022/03/11 15:17:21;;;;;;;6.68;4.00;;;;;;;17.00;45.88;96399.75;10423615;28;20303;-21
2022/03/11 15:22:22;;;;;;;5.05;2.38;;;;;;;17.02;46.84;96403.97;10431714;28;20083;-22
2022/03/11 15:27:22;;;;;;;8.02;2.75;;;;;;;17.05;46.12;96396.38;10435228;28;20554;-21
2022/03/11 15:32:23;;;;;;;3.70;2.25;;;;;;;17.08;46.78;96395.53;10454695;28;20032;-22
2022/03/11 15:37:24;;;;;;;5.60;2.47;;;;;;;17.08;46.62;96381.19;10467609;28;20083;-22
2022/03/11 15:42:25;;;;;;;4.00;2.33;;;;;;;17.06;46.88;96385.41;10458446;28;20170;-21
2022/03/11 15:47:26;;;;;;;4.40;2.00;;;;;;;17.07;46.86;96374.44;10447056;28;20049;-22
2022/03/11 15:52:34;;;;;;;4.80;2.40;;;;;;;17.08;47.01;96372.78;10450764;28;20030;-23
2022/03/11 15:57:34;;;;;;;6.93;3.20;;;;;;;17.05;48.39;96372.75;10440624;28;20504;-22
2022/03/11 16:02:35;;;;;;;6.55;3.78;;;;;;;17.13;49.30;96371.06;10467693;28;20033;-22
2022/03/11 16:07:37;;;;;;;6.70;3.25;;;;;;;17.12;48.65;96366.84;10443423;28;20036;-22
2022/03/11 16:12:40;;;;;;;4.30;2.03;;;;;;;17.13;47.22;96363.47;10457139;28;20128;-23
2022/03/11 16:17:41;;;;;;;2.63;2.05;;;;;;;17.13;46.97;96361.81;10464087;28;20030;-21
2022/03/11 16:22:41;;;;;;;3.47;2.38;;;;;;;17.15;46.93;96366.88;10441589;28;20093;-22
2022/03/11 16:27:42;;;;;;;3.33;2.35;;;;;;;17.15;46.75;96361.81;10431110;28;20039;-23
2022/03/11 16:32:42;;;;;;;3.35;2.17;;;;;;;17.13;46.62;96360.94;10430556;28;20036;-21
2022/03/11 16:37:42;;;;;;;4.20;2.30;;;;;;;17.09;46.79;96357.56;10448467;28;20107;-22
2022/03/11 16:42:43;;;;;;;3.67;2.47;;;;;;;17.09;47.17;96372.75;10475972;28;20275;-21
2022/03/11 16:47:44;;;;;;;3.10;2.00;;;;;;;17.12;47.37;96370.25;10464219;28;20024;-22
2022/03/11 16:52:45;;;;;;;6.57;2.70;;;;;;;17.11;46.91;96367.69;10453362;28;20043;-22
2022/03/11 16:57:45;;;;;;;4.73;2.60;;;;;;;17.11;46.95;96363.50;10467748;28;20036;-22
2022/03/11 17:02:46;;;;;;;6.03;2.17;;;;;;;17.13;47.02;96366.00;10462657;28;20327;-23
2022/03/11 17:07:47;;;;;;;6.30;3.25;;;;;;;17.15;48.33;96371.94;10448521;28;20037;-22
2022/03/11 17:12:47;;;;;;;6.40;3.55;;;;;;;17.18;49.00;96376.97;10465235;28;20061;-22
2022/03/11 17:17:48;;;;;;;10.40;2.88;;;;;;;17.16;47.70;96371.91;10469928;28;20036;-22
2022/03/11 17:22:49;;;;;;;7.30;2.92;;;;;;;17.15;47.05;96375.28;10462052;28;20123;-23
2022/03/11 17:27:49;;;;;;;6.03;3.20;;;;;;;16.96;45.67;96381.19;10437284;28;20034;-20
2022/03/11 17:32:50;;;;;;;4.03;2.57;;;;;;;17.06;46.29;96380.34;10462163;28;20420;-19
2022/03/11 17:37:50;;;;;;;2.90;2.10;;;;;;;17.06;46.48;96379.53;10444186;28;20593;-21
2022/03/11 17:42:51;;;;;;;11.52;3.42;;;;;;;17.09;46.68;96390.47;10464578;28;20040;-21
2022/03/11 17:47:52;;;;;;;3.17;2.43;;;;;;;17.09;46.87;96395.50;10458069;28;20488;-21
2022/03/11 17:52:54;;;;;;;3.97;2.20;;;;;;;17.09;46.62;96399.75;10431845;28;20290;-22
2022/03/11 17:57:55;;;;;;;8.57;2.95;;;;;;;17.10;46.47;96397.22;10463090;28;20093;-21
2022/03/11 18:02:56;;;;;;;4.82;2.78;;;;;;;17.12;46.84;96399.75;10462095;28;20047;-21
2022/03/11 18:07:57;;;;;;;4.60;2.60;;;;;;;17.10;46.57;96406.50;10461583;28;20098;-21
2022/03/11 18:12:57;;;;;;;5.13;2.65;;;;;;;17.11;46.54;96413.22;10462676;28;20037;-21
2022/03/11 18:17:58;;;;;;;9.63;3.25;;;;;;;17.11;47.21;96410.69;10463926;28;20139;-21
2022/03/11 18:22:58;;;;;;;7.32;3.67;;;;;;;17.16;47.93;96419.16;10463320;28;20147;-24
2022/03/11 18:28:02;;;;;;;12.90;3.03;;;;;;;17.13;47.58;96414.94;10454818;28;20040;-22
2022/03/11 18:33:05;;;;;;;5.30;2.28;;;;;;;17.09;47.03;96415.75;10452391;28;20051;-22
2022/03/11 18:38:05;;;;;;;4.10;2.17;;;;;;;17.10;47.00;96416.59;10449070;28;20032;-21
2022/03/11 18:43:06;;;;;;;3.47;2.40;;;;;;;17.08;46.59;96411.53;10454114;28;20559;-21
2022/03/11 18:48:06;;;;;;;3.65;2.63;;;;;;;17.07;46.90;96412.38;10430580;28;20058;-22
2022/03/11 18:53:08;;;;;;;6.68;3.10;;;;;;;17.05;47.06;96409.03;10446809;28;20488;-22
2022/03/11 18:58:08;;;;;;;6.47;3.78;;;;;;;17.08;47.08;96410.72;10465769;28;20122;-20
2022/03/11 19:03:10;;;;;;;4.47;3.03;;;;;;;17.08;47.03;96403.13;10460505;28;20033;-21
2022/03/11 19:08:11;;;;;;;8.15;2.97;;;;;;;17.08;46.89;96396.38;10442712;28;20029;-21
2022/03/11 19:13:12;;;;;;;4.40;2.53;;;;;;;17.10;46.76;96396.38;10427244;28;20037;-21
2022/03/11 19:18:12;;;;;;;5.90;2.60;;;;;;;17.08;46.79;96401.41;10429260;28;20287;-21
2022/03/11 19:23:12;;;;;;;10.17;3.30;;;;;;;17.12;48.43;96409.84;10426012;28;20044;-21
2022/03/11 19:28:13;;;;;;;9.35;4.70;;;;;;;17.17;48.53;96413.25;10404174;28;20279;-21
2022/03/11 19:33:13;;;;;;;10.03;4.30;;;;;;;17.15;47.48;96420.00;10414610;28;20085;-21
2022/03/11 19:38:16;;;;;;;7.50;4.13;;;;;;;17.16;47.38;96426.75;10427936;28;20424;-21
2022/03/11 19:43:17;;;;;;;6.72;4.30;;;;;;;17.11;47.54;96425.88;10422455;28;20022;-21
2022/03/11 19:48:18;;;;;;;8.13;3.47;;;;;;;17.11;47.57;96433.47;10431646;28;20928;-21
2022/03/11 19:53:19;;;;;;;9.25;4.15;;;;;;;17.12;47.50;96440.22;10421834;28;20038;-21
2022/03/11 19:58:20;;;;;;;5.40;3.33;;;;;;;17.07;47.45;96444.44;10435299;28;20582;-21
2022/03/11 20:03:21;;;;;;;6.65;3.97;;;;;;;17.13;46.93;96469.72;10421192;28;20079;-22
2022/03/11 20:08:22;;;;;;;5.47;3.42;;;;;;;17.12;47.49;96475.63;10433744;28;20082;-21
2022/03/11 20:13:25;;;;;;;11.57;5.60;;;;;;;17.15;48.81;96488.28;10426222;28;20033;-21
2022/03/11 20:18:26;;;;;;;6.47;4.05;;;;;;;17.11;47.75;96489.09;10437409;28;20101;-21
2022/03/11 20:23:27;;;;;;;4.63;3.45;;;;;;;17.08;47.80;96499.22;10455201;28;20609;-22
2022/03/11 20:28:28;;;;;;;4.63;3.08;;;;;;;17.11;47.01;96509.34;10445369;28;20028;-21
2022/03/11 20:33:29;;;;;;;5.43;2.83;;;;;;;17.06;47.22;96511.88;10436635;28;20033;-21
2022/03/11 20:38:30;;;;;;;10.18;5.07;;;;;;;17.06;48.23;96523.69;10453687;28;20120;-21
2022/03/11 20:43:33;;;;;;;4.05;2.97;;;;;;;17.03;47.14;96527.03;10446299;28;20105;-21
2022/03/11 20:48:34;;;;;;;5.63;3.00;;;;;;;17.02;47.45;96537.16;10450360;28;20028;-21
2022/03/11 20:53:35;;;;;;;10.27;4.65;;;;;;;17.02;49.34;96547.25;10430729;28;20100;-21
2022/03/11 20:58:36;;;;;;;11.18;4.78;;;;;;;17.09;48.57;96554.03;10454023;28;20045;-22
2022/03/11 21:03:36;;;;;;;11.70;4.73;;;;;;;17.14;48.75;96554.91;10452497;28;20032;-21
2022/03/11 21:08:37;;;;;;;6.37;3.30;;;;;;;17.10;47.83;96543.06;10452176;28;20374;-21
2022/03/11 21:13:39;;;;;;;5.72;3.28;;;;;;;17.16;47.30;96558.28;10446078;28;20330;-22
2022/03/11 21:18:41;;;;;;;4.70;3.00;;;;;;;17.16;47.35;96558.28;10449017;28;20095;-22
2022/03/11 21:23:42;;;;;;;5.68;3.38;;;;;;;17.17;47.25;96565.00;10446449;28;20067;-22
2022/03/11 21:28:43;;;;;;;4.85;3.47;;;;;;;17.16;47.28;96558.28;10444629;28;20061;-22
2022/03/11 21:33:44;;;;;;;9.30;3.70;;;;;;;17.15;47.13;96566.72;10453538;28;20040;-25
2022/03/11 21:38:44;;;;;;;4.38;2.67;;;;;;;17.12;47.17;96575.13;10417399;28;20122;-21
2022/03/11 21:43:47;;;;;;;4.90;3.28;;;;;;;17.13;47.29;96568.34;10462245;28;20124;-21
2022/03/11 21:48:47;;;;;;;3.55;2.80;;;;;;;17.12;47.18;96570.06;10431429;28;20425;-21
2022/03/11 21:53:52;;;;;;;5.13;3.25;;;;;;;17.13;46.84;96575.94;10451626;28;20037;-20
2022/03/11 21:58:52;;;;;;;9.55;4.28;;;;;;;17.16;47.64;96583.56;10460676;28;20059;-21
2022/03/11 22:03:53;;;;;;;9.52;4.43;;;;;;;17.18;47.81;96581.88;10427790;28;20479;-21
2022/03/11 22:08:53;;;;;;;6.63;3.80;;;;;;;17.16;47.44;96584.41;10457000;28;20035;-20
2022/03/11 22:13:55;;;;;;;5.03;3.25;;;;;;;17.14;46.96;96585.25;10424385;28;20499;-23
2022/03/11 22:18:56;;;;;;;5.50;3.45;;;;;;;17.15;47.04;96592.00;10463630;28;20041;-21
2022/03/11 22:23:56;;;;;;;7.32;4.05;;;;;;;17.10;47.23;96593.66;10457111;28;20072;-21
2022/03/11 22:28:57;;;;;;;5.53;3.03;;;;;;;17.09;47.33;96599.56;10458594;28;20377;-23
2022/03/11 22:33:59;;;;;;;5.68;3.75;;;;;;;17.08;47.06;96600.41;10456975;28;20045;-21
2022/03/11 22:38:59;;;;;;;6.10;4.07;;;;;;;17.07;47.18;96612.19;10425791;28;20040;-21
2022/03/11 22:44:03;;;;;;;13.75;3.20;;;;;;;17.07;46.89;96624.00;10456546;28;20391;-21
2022/03/11 22:49:07;;;;;;;6.55;3.22;;;;;;;17.07;47.38;96619.78;10448227;28;20409;-21
2022/03/11 22:54:09;;;;;;;7.28;3.60;;;;;;;17.07;47.18;96627.38;10456616;28;20569;-21
2022/03/11 22:59:12;;;;;;;13.68;5.85;;;;;;;17.10;48.23;96619.81;10433711;28;20502;-21
2022/03/11 23:04:14;;;;;;;7.88;4.55;;;;;;;17.12;48.67;96627.38;10453768;28;20068;-21
2022/03/11 23:09:29;;;;;;;12.73;4.57;;;;;;;17.06;48.06;96638.31;10457808;28;20056;-21
2022/03/11 23:14:31;;;;;;;18.45;4.38;;;;;;;17.04;47.17;96655.19;10467125;28;20120;-23
2022/03/11 23:19:32;;;;;;;8.45;3.88;;;;;;;17.05;47.08;96666.13;10443065;28;20033;-21
2022/03/11 23:24:33;;;;;;;8.00;3.60;;;;;;;17.04;47.24;96672.03;10454688;28;20029;-21